createdAt,value
2019-04-23T00:00:56.456Z,41.47
2019-04-23T00:03:25.860Z,42.08
2019-04-23T00:05:59.491Z,42.35
2019-04-23T00:08:39.690Z,42.42
2019-04-23T00:10:59.135Z,42.34
2019-04-23T00:13:30.506Z,42.17
2019-04-23T00:16:18.689Z,42.17
2019-04-23T00:18:49.757Z,42.32
2019-04-23T00:21:43.054Z,42.55
2019-04-23T00:24:34.807Z,42.33
2019-04-23T00:27:06.224Z,42.35
2019-04-23T00:29:28.050Z,41.91
2019-04-23T00:31:59.593Z,41.75
2019-04-23T00:34:37.524Z,42.02
2019-04-23T00:37:06.509Z,42.16
2019-04-23T00:39:33.891Z,42.10
2019-04-23T00:42:08.537Z,42.56
2019-04-23T00:44:40.110Z,43.00
2019-04-23T00:47:06.985Z,43.36
2019-04-23T00:49:40.198Z,43.39
2019-04-23T00:52:14.512Z,43.45
2019-04-23T00:54:41.120Z,43.78
2019-04-23T00:59:44.621Z,43.97
2019-04-23T01:02:13.195Z,44.17
2019-04-23T01:04:46.073Z,44.33
2019-04-23T01:07:11.339Z,44.67
2019-04-23T01:09:56.126Z,44.49
2019-04-23T01:12:30.110Z,44.60
2019-04-23T01:14:48.677Z,44.78
2019-04-23T01:17:26.185Z,44.72
2019-04-23T01:19:54.721Z,44.78
2019-04-23T01:22:08.682Z,45.07
2019-04-23T01:25:13.515Z,45.71
2019-04-23T01:28:09.395Z,46.21
2019-04-23T01:30:40.934Z,47.06
2019-04-23T01:33:16.058Z,46.96
2019-04-23T01:35:39.677Z,47.01
2019-04-23T01:38:11.918Z,47.12
2019-04-23T01:40:40.606Z,47.31
2019-04-23T01:43:16.474Z,47.65
2019-04-23T01:45:48.090Z,47.83
2019-04-23T01:48:12.879Z,48.30
2019-04-23T01:53:23.309Z,48.85
2019-04-23T01:55:54.440Z,48.57
2019-04-23T01:58:31.843Z,49.19
2019-04-23T02:00:53.228Z,49.51
2019-04-23T02:03:21.504Z,49.02
2019-04-23T02:05:55.596Z,49.73
2019-04-23T02:08:42.034Z,49.35
2019-04-23T02:10:58.740Z,49.53
2019-04-23T02:13:32.394Z,49.67
2019-04-23T02:16:12.903Z,49.88
2019-04-23T02:18:32.159Z,49.49
2019-04-23T02:26:10.814Z,48.92
2019-04-23T02:28:49.538Z,48.86
2019-04-23T02:36:20.816Z,49.18
2019-04-23T02:38:54.542Z,49.47
2019-04-23T02:41:35.169Z,50.01
2019-04-23T02:43:59.179Z,50.55
2019-04-23T02:46:43.853Z,50.84
2019-04-23T02:48:56.622Z,51.48
2019-04-23T02:51:27.530Z,51.27
2019-04-23T02:54:04.590Z,51.15
2019-04-23T02:59:06.191Z,51.53
2019-04-23T03:09:23.874Z,52.31
2019-04-23T03:12:07.961Z,52.46
2019-04-23T03:14:09.582Z,52.55
2019-04-23T03:19:31.910Z,53.48
2019-04-23T03:22:15.295Z,52.79
2019-04-23T03:27:28.768Z,53.31
2019-04-23T03:34:36.749Z,53.81
2019-04-23T03:35:19.459Z,53.92
2019-04-23T03:42:47.048Z,53.86
2019-04-23T03:45:25.657Z,53.99
2019-04-23T03:47:48.141Z,53.90
2019-04-23T03:50:15.481Z,53.81
2019-04-23T03:52:39.216Z,53.94
2019-04-23T03:55:12.616Z,53.98
2019-04-23T03:57:38.312Z,53.86
2019-04-23T04:00:24.986Z,54.44
2019-04-23T04:02:48.498Z,54.64
2019-04-23T04:05:17.299Z,54.73
2019-04-23T04:07:47.009Z,55.05
2019-04-23T04:12:39.646Z,55.07
2019-04-23T04:15:35.637Z,55.21
2019-04-23T04:17:55.620Z,55.49
2019-04-23T04:20:29.031Z,55.33
2019-04-23T04:23:00.445Z,55.14
2019-04-23T04:28:08.467Z,55.86
2019-04-23T04:40:33.091Z,55.41
2019-04-23T04:43:11.290Z,56.50
2019-04-23T04:45:42.487Z,56.60
2019-04-23T04:50:25.961Z,57.39
2019-04-23T04:53:12.446Z,57.33
2019-04-23T04:55:37.569Z,57.47
2019-04-23T04:57:58.143Z,57.44
2019-04-23T05:00:42.550Z,57.44
2019-04-23T05:03:19.458Z,57.22
2019-04-23T05:08:11.300Z,57.71
2019-04-23T05:13:22.207Z,57.41
2019-04-23T05:15:39.144Z,57.18
2019-04-23T05:18:31.764Z,56.40
2019-04-23T05:21:01.819Z,56.99
2019-04-23T05:23:45.908Z,57.15
2019-04-23T05:26:20.963Z,57.02
2019-04-23T05:31:18.707Z,56.79
2019-04-23T05:33:57.206Z,56.26
2019-04-23T05:41:36.491Z,56.93
2019-04-23T05:43:57.361Z,57.02
2019-04-23T05:46:29.814Z,56.79
2019-04-23T05:51:33.501Z,56.34
2019-04-23T05:53:58.240Z,56.55
2019-04-23T05:56:29.165Z,55.83
2019-04-23T05:59:06.174Z,55.98
2019-04-23T06:07:06.058Z,54.67
2019-04-23T06:09:25.224Z,54.85
2019-04-23T06:11:55.495Z,54.46
2019-04-23T06:22:07.005Z,54.24
2019-04-23T06:24:24.942Z,54.01
2019-04-23T06:29:25.651Z,53.52
2019-04-23T06:31:48.868Z,53.29
2019-04-23T06:34:26.509Z,53.42
2019-04-23T06:36:50.785Z,53.10
2019-04-23T06:39:26.017Z,52.66
2019-04-23T06:41:55.173Z,52.33
2019-04-23T06:49:30.485Z,51.69
2019-04-23T06:54:36.304Z,51.49
2019-04-23T06:59:33.559Z,51.05
2019-04-23T07:02:10.016Z,50.55
2019-04-23T07:04:43.815Z,50.18
2019-04-23T07:09:35.239Z,49.60
2019-04-23T07:12:08.504Z,49.27
2019-04-23T07:14:44.134Z,49.22
2019-04-23T07:19:42.336Z,48.19
2019-04-23T07:24:41.983Z,46.69
2019-04-23T07:27:17.532Z,44.57
2019-04-23T07:29:48.287Z,41.06
2019-04-23T07:32:11.014Z,35.66
2019-04-23T07:34:49.804Z,32.32
2019-04-23T07:37:32.771Z,29.60
2019-04-23T07:40:09.897Z,27.88
2019-04-23T07:48:24.297Z,24.28
2019-04-23T07:50:52.038Z,24.68
2019-04-23T07:53:48.224Z,23.67
2019-04-23T07:56:03.790Z,22.21
2019-04-23T08:01:02.069Z,21.96
2019-04-23T08:03:31.517Z,20.66
2019-04-23T08:06:01.033Z,19.61
2019-04-23T08:08:30.221Z,19.76
2019-04-23T08:16:21.841Z,21.94
2019-04-23T08:18:45.560Z,22.92
2019-04-23T08:21:09.820Z,24.05
2019-04-23T08:23:56.899Z,24.04
2019-04-23T08:31:40.264Z,24.56
2019-04-23T08:34:18.625Z,25.56
2019-04-23T08:36:44.358Z,26.41
2019-04-23T08:39:11.546Z,27.02
2019-04-23T08:41:44.607Z,27.25
2019-04-23T08:44:21.517Z,27.59
2019-04-23T08:47:01.015Z,28.29
2019-04-23T08:49:31.273Z,28.25
2019-04-23T08:52:00.306Z,28.31
2019-04-23T08:54:41.606Z,28.01
2019-04-23T08:59:34.796Z,29.42
2019-04-23T09:04:30.974Z,30.48
2019-04-23T09:07:09.633Z,29.46
2019-04-23T09:09:34.683Z,31.28
2019-04-23T09:11:57.937Z,31.67
2019-04-23T09:14:32.159Z,32.47
2019-04-23T09:17:06.866Z,32.71
2019-04-23T09:22:08.663Z,33.72
2019-04-23T09:24:32.923Z,33.68
2019-04-23T09:27:09.694Z,33.98
2019-04-23T09:29:45.785Z,34.00
2019-04-23T09:35:08.577Z,34.02
2019-04-23T09:38:04.030Z,33.26
2019-04-23T09:43:33.279Z,33.68
2019-04-23T09:48:49.279Z,33.90
2019-04-23T09:53:47.171Z,34.23
2019-04-23T09:56:14.184Z,34.01
2019-04-23T09:58:43.257Z,34.86
2019-04-23T10:01:25.999Z,33.75
2019-04-23T10:03:40.587Z,33.77
2019-04-23T10:06:11.709Z,34.41
2019-04-23T10:08:40.516Z,34.58
2019-04-23T10:11:07.459Z,33.92
2019-04-23T10:13:36.702Z,34.00
2019-04-23T10:16:06.861Z,33.96
2019-04-23T10:18:37.374Z,33.46
2019-04-23T10:21:07.781Z,32.89
2019-04-23T10:23:37.156Z,32.92
2019-04-23T10:26:07.852Z,34.07
2019-04-23T10:28:53.877Z,33.04
2019-04-23T10:31:24.939Z,33.96
2019-04-23T10:33:55.821Z,33.89
2019-04-23T10:36:27.697Z,34.33
2019-04-23T10:39:03.500Z,33.95
2019-04-23T10:41:28.019Z,33.41
2019-04-23T10:44:04.812Z,33.35
2019-04-23T10:47:23.375Z,33.36
2019-04-23T10:52:36.343Z,33.74
2019-04-23T10:55:00.802Z,33.43
2019-04-23T10:57:20.749Z,32.91
2019-04-23T11:00:08.910Z,32.70
2019-04-23T11:05:22.581Z,31.73
2019-04-23T11:07:30.910Z,31.99
2019-04-23T11:12:46.228Z,33.01
2019-04-23T11:17:59.175Z,32.66
2019-04-23T11:25:36.737Z,32.63
2019-04-23T11:28:02.813Z,32.93
2019-04-23T11:30:31.830Z,32.38
2019-04-23T11:33:10.094Z,32.08
2019-04-23T11:35:39.966Z,32.33
2019-04-23T11:40:34.287Z,32.92
2019-04-23T11:45:44.737Z,32.59
2019-04-23T11:51:10.434Z,33.07
2019-04-23T11:58:14.975Z,32.71
2019-04-23T12:03:19.426Z,33.04
2019-04-23T12:06:25.443Z,32.87
2019-04-23T12:09:09.939Z,33.06
2019-04-23T12:11:53.848Z,31.60
2019-04-23T12:14:42.066Z,31.96
2019-04-23T12:17:25.997Z,33.12
2019-04-23T12:22:17.868Z,32.90
2019-04-23T12:25:02.287Z,33.44
2019-04-23T12:27:30.646Z,32.15
2019-04-23T12:29:50.734Z,33.13
2019-04-23T12:32:41.815Z,32.89
2019-04-23T12:37:45.657Z,33.21
2019-04-23T12:40:23.541Z,32.44
2019-04-23T12:47:56.750Z,32.61
2019-04-23T12:50:42.454Z,32.41
2019-04-23T12:52:52.405Z,32.88
2019-04-23T12:55:27.748Z,33.00
2019-04-23T12:57:52.303Z,32.53
2019-04-23T13:00:27.179Z,32.27
2019-04-23T13:13:11.713Z,31.70
2019-04-23T13:15:29.366Z,32.12
2019-04-23T13:20:33.571Z,32.79
2019-04-23T13:23:13.534Z,32.38
2019-04-23T13:28:21.680Z,32.27
2019-04-23T13:30:56.536Z,31.62
2019-04-23T13:36:01.677Z,31.50
2019-04-23T13:38:34.945Z,32.71
2019-04-23T13:41:01.786Z,32.87
2019-04-23T13:46:06.906Z,32.49
2019-04-23T13:48:20.050Z,32.43
2019-04-23T13:54:17.081Z,32.57
2019-04-23T13:56:03.703Z,32.74
2019-04-23T13:58:34.450Z,32.23
2019-04-23T14:03:40.616Z,32.75
2019-04-23T14:31:36.587Z,30.34
2019-04-23T14:41:26.766Z,31.21
2019-04-23T14:49:22.089Z,31.74
2019-04-23T14:51:49.729Z,31.71
2019-04-23T14:54:34.392Z,31.59
2019-04-23T14:56:58.844Z,31.84
2019-04-23T14:59:13.530Z,31.45
2019-04-23T15:01:55.798Z,31.39
2019-04-23T15:04:28.963Z,31.45
2019-04-23T15:07:07.555Z,31.20
2019-04-23T15:12:11.909Z,31.41
2019-04-23T15:14:33.932Z,31.81
2019-04-23T15:24:40.887Z,32.96
2019-04-23T15:29:36.816Z,32.77
2019-04-23T15:34:45.471Z,33.46
2019-04-23T15:37:44.274Z,32.84
2019-04-23T15:39:56.624Z,32.85
2019-04-23T15:42:19.627Z,32.87
2019-04-23T15:44:49.043Z,32.95
2019-04-23T15:49:51.343Z,33.61
2019-04-23T15:52:21.097Z,32.64
2019-04-23T15:57:41.672Z,32.70
2019-04-23T15:59:55.897Z,33.12
2019-04-23T16:01:57.585Z,32.83
2019-04-23T16:04:27.609Z,33.18
2019-04-23T16:06:56.879Z,33.41
2019-04-23T16:10:04.313Z,34.02
2019-04-23T16:12:22.263Z,33.58
2019-04-23T16:17:32.661Z,33.89
2019-04-23T16:22:39.716Z,34.18
2019-04-23T16:25:13.350Z,34.39
2019-04-23T16:27:50.443Z,34.41
2019-04-23T16:38:36.367Z,33.69
2019-04-23T16:43:38.299Z,34.29
2019-04-23T16:48:35.359Z,34.28
2019-04-23T16:51:13.102Z,34.32
2019-04-23T16:56:04.183Z,34.27
2019-04-23T16:58:33.510Z,34.94
2019-04-23T17:01:03.826Z,34.81
2019-04-23T17:03:33.387Z,35.11
2019-04-23T17:06:08.647Z,35.26
2019-04-23T17:11:09.717Z,35.62
2019-04-23T17:13:32.995Z,35.46
2019-04-23T17:21:01.928Z,35.58
2019-04-23T17:26:26.098Z,36.02
2019-04-23T17:28:35.992Z,35.93
2019-04-23T17:33:43.912Z,36.25
2019-04-23T17:39:36.435Z,36.93
2019-04-23T17:42:31.000Z,36.91
2019-04-23T17:50:14.332Z,37.25
2019-04-23T17:52:42.034Z,37.76
2019-04-23T17:55:13.524Z,37.82
2019-04-23T17:57:43.678Z,37.88
2019-04-23T18:02:55.665Z,38.10
2019-04-23T18:05:29.157Z,38.21
2019-04-23T18:08:11.774Z,38.46
2019-04-23T18:12:53.220Z,38.87
2019-04-23T18:15:15.462Z,39.11
2019-04-23T18:20:37.540Z,39.59
2019-04-23T18:23:09.501Z,39.44
2019-04-23T18:25:51.592Z,39.74
2019-04-23T18:28:13.540Z,40.61
2019-04-23T18:31:46.928Z,41.16
2019-04-23T18:34:16.812Z,41.20
2019-04-23T18:36:29.505Z,41.41
2019-04-23T18:39:06.338Z,41.90
2019-04-23T18:41:33.507Z,42.26
2019-04-23T18:46:42.144Z,42.70
2019-04-23T18:48:59.732Z,42.61
2019-04-23T18:51:40.454Z,42.83
2019-04-23T18:54:08.498Z,43.12
2019-04-23T18:56:58.306Z,43.13
2019-04-23T18:59:16.230Z,43.44
2019-04-23T19:02:20.646Z,43.51
2019-04-23T19:05:03.441Z,43.63
2019-04-23T19:13:07.386Z,44.04
2019-04-23T19:15:37.920Z,44.35
2019-04-23T19:18:00.431Z,44.33
2019-04-23T19:23:21.064Z,44.68
2019-04-23T19:25:49.879Z,44.80
2019-04-23T19:28:30.742Z,44.64
2019-04-23T19:30:55.706Z,44.93
2019-04-23T19:33:38.280Z,44.93
2019-04-23T19:36:11.347Z,45.21
2019-04-23T19:38:36.429Z,45.29
2019-04-23T19:41:01.949Z,45.51
2019-04-23T19:48:44.111Z,45.60
2019-04-23T19:51:11.313Z,45.60
2019-04-23T19:54:01.782Z,45.67
2019-04-23T19:56:16.797Z,45.56
2019-04-23T19:58:44.968Z,45.87
2019-04-23T20:01:15.414Z,45.76
2019-04-23T20:06:27.374Z,45.76
2019-04-23T20:09:13.885Z,45.77
2019-04-23T20:11:13.695Z,45.76
2019-04-23T20:13:52.701Z,45.83
2019-04-23T20:16:25.279Z,45.56
2019-04-23T20:18:52.363Z,45.85
2019-04-23T20:21:19.519Z,45.86
2019-04-23T20:34:30.647Z,46.58
2019-04-23T20:37:02.874Z,46.32
2019-04-23T20:42:10.774Z,47.17
2019-04-23T20:44:39.434Z,47.08
2019-04-23T20:49:42.328Z,46.95
2019-04-23T20:54:42.111Z,47.33
2019-04-23T20:57:31.654Z,47.49
2019-04-23T21:05:11.765Z,47.82
2019-04-23T21:07:49.057Z,48.03
2019-04-23T21:10:22.439Z,47.37
2019-04-23T21:17:55.796Z,46.48
2019-04-23T21:20:17.774Z,46.11
2019-04-23T21:22:41.441Z,46.17
2019-04-23T21:25:08.180Z,46.18
2019-04-23T21:28:01.987Z,46.35
2019-04-23T21:30:39.789Z,46.03
2019-04-23T21:33:10.112Z,46.32
2019-04-23T21:36:07.183Z,46.59
2019-04-23T21:38:39.404Z,46.35
2019-04-23T21:43:57.215Z,46.49
2019-04-23T21:46:17.087Z,46.45
2019-04-23T21:51:41.919Z,46.71
2019-04-23T21:53:49.205Z,46.92
2019-04-23T21:56:15.550Z,47.03
2019-04-23T21:58:53.628Z,46.97
2019-04-23T22:01:36.640Z,46.72
2019-04-23T22:06:33.519Z,47.00
2019-04-23T22:08:57.704Z,47.05
2019-04-23T22:19:13.364Z,47.48
2019-04-23T22:21:33.061Z,47.57
2019-04-23T22:24:04.319Z,47.79
2019-04-23T22:26:35.259Z,47.79
2019-04-23T22:36:44.545Z,48.08
2019-04-23T22:39:03.144Z,48.11
2019-04-23T22:41:43.823Z,48.00
2019-04-23T22:44:09.494Z,48.14
2019-04-23T22:46:52.496Z,47.96
2019-04-23T22:49:20.022Z,48.15
2019-04-23T22:54:14.010Z,48.44
2019-04-23T22:56:54.975Z,48.59
2019-04-23T23:09:28.990Z,48.44
2019-04-23T23:14:27.044Z,48.77
2019-04-23T23:16:58.448Z,48.86
2019-04-23T23:19:55.473Z,48.87
2019-04-23T23:24:28.612Z,48.98
2019-04-23T23:26:57.157Z,49.08
2019-04-23T23:29:33.769Z,49.23
2019-04-23T23:32:07.924Z,49.30
2019-04-23T23:34:57.563Z,49.36
2019-04-23T23:37:09.103Z,49.25
2019-04-23T23:39:49.664Z,49.48
2019-04-23T23:42:09.692Z,49.50
2019-04-23T23:47:29.830Z,49.52
2019-04-23T23:49:43.847Z,49.52
2019-04-23T23:52:09.595Z,49.60
2019-04-23T23:54:43.819Z,49.69
